sensor_id;sensor_type;location;lat;lon;timestamp;P1;durP1;ratioP1;P2;durP2;ratioP2
8319;SDS011;4197;42.130;24.746;2023-05-19T00:01:30;4.05;;;2.70;;
8319;SDS011;4197;42.130;24.746;2023-05-19T00:04:00;2.75;;;2.42;;
8319;SDS011;4197;42.130;24.746;2023-05-19T00:06:31;3.13;;;2.83;;
8319;SDS011;4197;42.130;24.746;2023-05-19T00:09:00;9.05;;;2.97;;
8319;SDS011;4197;42.130;24.746;2023-05-19T00:11:30;5.03;;;2.27;;
8319;SDS011;4197;42.130;24.746;2023-05-19T00:13:59;2.60;;;2.25;;
8319;SDS011;4197;42.130;24.746;2023-05-19T00:16:28;5.25;;;2.63;;
8319;SDS011;4197;42.130;24.746;2023-05-19T00:18:57;5.20;;;2.53;;
8319;SDS011;4197;42.130;24.746;2023-05-19T00:21:28;3.97;;;2.37;;
8319;SDS011;4197;42.130;24.746;2023-05-19T00:23:57;5.03;;;2.60;;
8319;SDS011;4197;42.130;24.746;2023-05-19T00:26:26;7.33;;;2.53;;
8319;SDS011;4197;42.130;24.746;2023-05-19T00:28:54;3.75;;;2.35;;
8319;SDS011;4197;42.130;24.746;2023-05-19T00:31:22;5.13;;;2.78;;
8319;SDS011;4197;42.130;24.746;2023-05-19T00:33:51;4.75;;;2.42;;
8319;SDS011;4197;42.130;24.746;2023-05-19T00:36:19;6.07;;;2.80;;
8319;SDS011;4197;42.130;24.746;2023-05-19T00:38:49;3.57;;;2.67;;
8319;SDS011;4197;42.130;24.746;2023-05-19T00:41:18;4.10;;;2.70;;
8319;SDS011;4197;42.130;24.746;2023-05-19T00:43:48;4.10;;;2.60;;
8319;SDS011;4197;42.130;24.746;2023-05-19T00:46:17;3.45;;;2.50;;
8319;SDS011;4197;42.130;24.746;2023-05-19T00:48:46;4.78;;;2.97;;
8319;SDS011;4197;42.130;24.746;2023-05-19T00:51:14;3.42;;;2.58;;
8319;SDS011;4197;42.130;24.746;2023-05-19T00:53:43;3.22;;;2.63;;
8319;SDS011;4197;42.130;24.746;2023-05-19T00:56:16;4.20;;;2.88;;
8319;SDS011;4197;42.130;24.746;2023-05-19T00:58:45;3.78;;;2.50;;
8319;SDS011;4197;42.130;24.746;2023-05-19T01:01:14;5.50;;;2.72;;
8319;SDS011;4197;42.130;24.746;2023-05-19T01:03:43;3.70;;;2.38;;
8319;SDS011;4197;42.130;24.746;2023-05-19T01:06:12;4.88;;;2.45;;
8319;SDS011;4197;42.130;24.746;2023-05-19T01:08:41;2.72;;;2.40;;
8319;SDS011;4197;42.130;24.746;2023-05-19T01:11:09;5.68;;;3.05;;
8319;SDS011;4197;42.130;24.746;2023-05-19T01:13:38;3.38;;;2.88;;
8319;SDS011;4197;42.130;24.746;2023-05-19T01:16:09;4.15;;;3.10;;
8319;SDS011;4197;42.130;24.746;2023-05-19T01:18:43;3.40;;;2.88;;
8319;SDS011;4197;42.130;24.746;2023-05-19T01:24:31;4.63;;;2.63;;
8319;SDS011;4197;42.130;24.746;2023-05-19T01:30:19;4.07;;;2.67;;
8319;SDS011;4197;42.130;24.746;2023-05-19T01:32:56;4.57;;;3.00;;
8319;SDS011;4197;42.130;24.746;2023-05-19T01:35:27;4.60;;;2.97;;
8319;SDS011;4197;42.130;24.746;2023-05-19T01:37:59;6.32;;;3.13;;
8319;SDS011;4197;42.130;24.746;2023-05-19T01:40:28;3.67;;;2.90;;
8319;SDS011;4197;42.130;24.746;2023-05-19T01:42:58;3.93;;;2.93;;
8319;SDS011;4197;42.130;24.746;2023-05-19T01:45:29;5.95;;;2.92;;
8319;SDS011;4197;42.130;24.746;2023-05-19T01:48:00;4.97;;;3.33;;
8319;SDS011;4197;42.130;24.746;2023-05-19T01:50:30;4.20;;;2.90;;
8319;SDS011;4197;42.130;24.746;2023-05-19T01:53:00;3.92;;;2.90;;
8319;SDS011;4197;42.130;24.746;2023-05-19T01:55:28;3.47;;;2.58;;
8319;SDS011;4197;42.130;24.746;2023-05-19T01:58:01;3.83;;;3.22;;
8319;SDS011;4197;42.130;24.746;2023-05-19T02:00:41;3.42;;;2.60;;
8319;SDS011;4197;42.130;24.746;2023-05-19T02:03:25;9.70;;;3.28;;
8319;SDS011;4197;42.130;24.746;2023-05-19T02:06:06;7.20;;;2.70;;
8319;SDS011;4197;42.130;24.746;2023-05-19T02:08:46;3.77;;;3.10;;
8319;SDS011;4197;42.130;24.746;2023-05-19T02:11:20;4.07;;;3.10;;
8319;SDS011;4197;42.130;24.746;2023-05-19T02:13:55;3.97;;;3.10;;
8319;SDS011;4197;42.130;24.746;2023-05-19T02:16:27;7.70;;;3.10;;
8319;SDS011;4197;42.130;24.746;2023-05-19T02:18:55;4.32;;;2.80;;
8319;SDS011;4197;42.130;24.746;2023-05-19T02:21:25;4.13;;;3.30;;
8319;SDS011;4197;42.130;24.746;2023-05-19T02:23:53;3.63;;;2.80;;
8319;SDS011;4197;42.130;24.746;2023-05-19T02:26:21;4.38;;;3.20;;
8319;SDS011;4197;42.130;24.746;2023-05-19T02:28:50;4.37;;;3.37;;
8319;SDS011;4197;42.130;24.746;2023-05-19T02:31:18;6.50;;;3.20;;
8319;SDS011;4197;42.130;24.746;2023-05-19T02:33:48;3.53;;;3.22;;
8319;SDS011;4197;42.130;24.746;2023-05-19T02:36:16;4.30;;;3.35;;
8319;SDS011;4197;42.130;24.746;2023-05-19T02:38:45;7.57;;;3.17;;
8319;SDS011;4197;42.130;24.746;2023-05-19T02:41:13;4.18;;;3.40;;
8319;SDS011;4197;42.130;24.746;2023-05-19T02:43:41;4.60;;;3.00;;
8319;SDS011;4197;42.130;24.746;2023-05-19T02:46:09;7.53;;;3.63;;
8319;SDS011;4197;42.130;24.746;2023-05-19T02:48:37;5.73;;;3.40;;
8319;SDS011;4197;42.130;24.746;2023-05-19T02:51:09;7.47;;;3.47;;
8319;SDS011;4197;42.130;24.746;2023-05-19T02:53:37;7.23;;;3.20;;
8319;SDS011;4197;42.130;24.746;2023-05-19T02:56:05;4.43;;;2.87;;
8319;SDS011;4197;42.130;24.746;2023-05-19T02:58:34;4.50;;;3.00;;
8319;SDS011;4197;42.130;24.746;2023-05-19T03:01:02;4.25;;;3.22;;
8319;SDS011;4197;42.130;24.746;2023-05-19T03:03:30;4.83;;;3.27;;
8319;SDS011;4197;42.130;24.746;2023-05-19T03:05:59;6.73;;;3.10;;
8319;SDS011;4197;42.130;24.746;2023-05-19T03:08:29;6.15;;;3.40;;
8319;SDS011;4197;42.130;24.746;2023-05-19T03:10:57;4.57;;;3.13;;
8319;SDS011;4197;42.130;24.746;2023-05-19T03:13:25;8.50;;;3.92;;
8319;SDS011;4197;42.130;24.746;2023-05-19T03:15:54;4.43;;;3.60;;
8319;SDS011;4197;42.130;24.746;2023-05-19T03:18:24;6.90;;;3.90;;
8319;SDS011;4197;42.130;24.746;2023-05-19T03:20:53;5.07;;;3.10;;
8319;SDS011;4197;42.130;24.746;2023-05-19T03:23:21;3.67;;;3.13;;
8319;SDS011;4197;42.130;24.746;2023-05-19T03:25:51;6.00;;;3.80;;
8319;SDS011;4197;42.130;24.746;2023-05-19T03:28:21;4.28;;;3.53;;
8319;SDS011;4197;42.130;24.746;2023-05-19T03:30:49;5.17;;;3.37;;
8319;SDS011;4197;42.130;24.746;2023-05-19T03:33:17;4.07;;;3.40;;
8319;SDS011;4197;42.130;24.746;2023-05-19T03:35:46;7.27;;;3.53;;
8319;SDS011;4197;42.130;24.746;2023-05-19T03:38:15;7.45;;;3.58;;
8319;SDS011;4197;42.130;24.746;2023-05-19T03:40:43;7.80;;;3.83;;
8319;SDS011;4197;42.130;24.746;2023-05-19T03:43:12;6.03;;;3.77;;
8319;SDS011;4197;42.130;24.746;2023-05-19T03:45:42;4.97;;;3.63;;
8319;SDS011;4197;42.130;24.746;2023-05-19T03:48:10;5.53;;;3.70;;
8319;SDS011;4197;42.130;24.746;2023-05-19T03:50:41;4.80;;;3.80;;
8319;SDS011;4197;42.130;24.746;2023-05-19T03:53:09;4.20;;;3.30;;
8319;SDS011;4197;42.130;24.746;2023-05-19T03:55:38;5.03;;;3.53;;
8319;SDS011;4197;42.130;24.746;2023-05-19T03:58:06;8.15;;;3.50;;
8319;SDS011;4197;42.130;24.746;2023-05-19T04:00:37;8.10;;;3.85;;
8319;SDS011;4197;42.130;24.746;2023-05-19T04:03:05;8.65;;;4.10;;
8319;SDS011;4197;42.130;24.746;2023-05-19T04:05:33;5.57;;;3.70;;
8319;SDS011;4197;42.130;24.746;2023-05-19T04:08:02;6.22;;;3.88;;
8319;SDS011;4197;42.130;24.746;2023-05-19T04:10:30;6.95;;;4.13;;
8319;SDS011;4197;42.130;24.746;2023-05-19T04:12:58;5.22;;;4.13;;
8319;SDS011;4197;42.130;24.746;2023-05-19T04:15:26;7.40;;;4.05;;
8319;SDS011;4197;42.130;24.746;2023-05-19T04:17:56;6.07;;;4.05;;
8319;SDS011;4197;42.130;24.746;2023-05-19T04:20:24;7.70;;;3.78;;
8319;SDS011;4197;42.130;24.746;2023-05-19T04:22:53;6.68;;;3.70;;
8319;SDS011;4197;42.130;24.746;2023-05-19T04:25:22;5.47;;;4.15;;
8319;SDS011;4197;42.130;24.746;2023-05-19T04:27:51;5.70;;;3.67;;
8319;SDS011;4197;42.130;24.746;2023-05-19T04:30:19;7.18;;;4.47;;
8319;SDS011;4197;42.130;24.746;2023-05-19T04:32:56;5.97;;;4.55;;
8319;SDS011;4197;42.130;24.746;2023-05-19T04:35:26;7.07;;;4.70;;
8319;SDS011;4197;42.130;24.746;2023-05-19T04:37:54;6.88;;;4.18;;
8319;SDS011;4197;42.130;24.746;2023-05-19T04:40:23;4.75;;;4.13;;
8319;SDS011;4197;42.130;24.746;2023-05-19T04:42:51;5.38;;;4.03;;
8319;SDS011;4197;42.130;24.746;2023-05-19T04:45:19;6.55;;;4.00;;
8319;SDS011;4197;42.130;24.746;2023-05-19T04:47:48;8.75;;;4.30;;
8319;SDS011;4197;42.130;24.746;2023-05-19T04:50:19;6.10;;;4.30;;
8319;SDS011;4197;42.130;24.746;2023-05-19T04:52:48;6.55;;;4.38;;
8319;SDS011;4197;42.130;24.746;2023-05-19T04:55:16;4.97;;;3.83;;
8319;SDS011;4197;42.130;24.746;2023-05-19T04:57:45;7.00;;;3.70;;
8319;SDS011;4197;42.130;24.746;2023-05-19T05:00:13;5.72;;;3.85;;
8319;SDS011;4197;42.130;24.746;2023-05-19T05:02:42;7.35;;;4.53;;
8319;SDS011;4197;42.130;24.746;2023-05-19T05:05:10;7.18;;;4.20;;
8319;SDS011;4197;42.130;24.746;2023-05-19T05:07:40;8.38;;;4.18;;
8319;SDS011;4197;42.130;24.746;2023-05-19T05:10:09;6.55;;;4.97;;
8319;SDS011;4197;42.130;24.746;2023-05-19T05:12:37;10.52;;;4.35;;
8319;SDS011;4197;42.130;24.746;2023-05-19T05:15:07;6.88;;;4.28;;
8319;SDS011;4197;42.130;24.746;2023-05-19T05:17:37;12.98;;;4.13;;
8319;SDS011;4197;42.130;24.746;2023-05-19T05:20:06;7.43;;;4.13;;
8319;SDS011;4197;42.130;24.746;2023-05-19T05:22:35;6.80;;;4.13;;
8319;SDS011;4197;42.130;24.746;2023-05-19T05:25:07;5.72;;;4.10;;
8319;SDS011;4197;42.130;24.746;2023-05-19T05:27:36;7.20;;;4.47;;
8319;SDS011;4197;42.130;24.746;2023-05-19T05:30:05;8.23;;;4.57;;
8319;SDS011;4197;42.130;24.746;2023-05-19T05:32:34;6.38;;;4.00;;
8319;SDS011;4197;42.130;24.746;2023-05-19T05:35:03;6.38;;;4.15;;
8319;SDS011;4197;42.130;24.746;2023-05-19T05:37:32;8.20;;;4.97;;
8319;SDS011;4197;42.130;24.746;2023-05-19T05:40:00;8.07;;;4.50;;
8319;SDS011;4197;42.130;24.746;2023-05-19T05:42:31;9.27;;;5.03;;
8319;SDS011;4197;42.130;24.746;2023-05-19T05:44:59;8.13;;;4.90;;
8319;SDS011;4197;42.130;24.746;2023-05-19T05:47:28;8.00;;;4.72;;
8319;SDS011;4197;42.130;24.746;2023-05-19T05:49:57;9.48;;;4.82;;
8319;SDS011;4197;42.130;24.746;2023-05-19T05:52:26;7.00;;;4.68;;
8319;SDS011;4197;42.130;24.746;2023-05-19T05:54:57;11.07;;;5.03;;
8319;SDS011;4197;42.130;24.746;2023-05-19T05:57:27;5.10;;;4.60;;
8319;SDS011;4197;42.130;24.746;2023-05-19T05:59:57;7.72;;;5.05;;
8319;SDS011;4197;42.130;24.746;2023-05-19T06:02:25;7.35;;;4.80;;
8319;SDS011;4197;42.130;24.746;2023-05-19T06:04:56;6.50;;;5.25;;
8319;SDS011;4197;42.130;24.746;2023-05-19T06:07:24;8.32;;;5.30;;
8319;SDS011;4197;42.130;24.746;2023-05-19T06:09:52;7.88;;;4.60;;
8319;SDS011;4197;42.130;24.746;2023-05-19T06:12:22;7.07;;;4.97;;
8319;SDS011;4197;42.130;24.746;2023-05-19T06:14:52;9.73;;;5.40;;
8319;SDS011;4197;42.130;24.746;2023-05-19T06:17:22;11.45;;;4.95;;
8319;SDS011;4197;42.130;24.746;2023-05-19T06:19:51;8.85;;;4.90;;
8319;SDS011;4197;42.130;24.746;2023-05-19T06:22:19;11.95;;;6.32;;
8319;SDS011;4197;42.130;24.746;2023-05-19T06:24:48;10.98;;;5.20;;
8319;SDS011;4197;42.130;24.746;2023-05-19T06:27:17;13.25;;;5.90;;
8319;SDS011;4197;42.130;24.746;2023-05-19T06:29:45;9.93;;;5.25;;
8319;SDS011;4197;42.130;24.746;2023-05-19T06:32:13;8.25;;;5.70;;
8319;SDS011;4197;42.130;24.746;2023-05-19T06:34:43;7.60;;;5.68;;
8319;SDS011;4197;42.130;24.746;2023-05-19T06:37:11;9.48;;;5.82;;
8319;SDS011;4197;42.130;24.746;2023-05-19T06:39:45;7.47;;;5.30;;
8319;SDS011;4197;42.130;24.746;2023-05-19T06:42:14;8.50;;;5.70;;
8319;SDS011;4197;42.130;24.746;2023-05-19T06:44:43;12.45;;;5.80;;
8319;SDS011;4197;42.130;24.746;2023-05-19T06:47:12;8.30;;;5.65;;
8319;SDS011;4197;42.130;24.746;2023-05-19T06:49:43;12.07;;;5.93;;
8319;SDS011;4197;42.130;24.746;2023-05-19T06:52:11;10.55;;;6.15;;
8319;SDS011;4197;42.130;24.746;2023-05-19T06:54:41;9.80;;;6.00;;
8319;SDS011;4197;42.130;24.746;2023-05-19T06:57:09;6.22;;;5.63;;
8319;SDS011;4197;42.130;24.746;2023-05-19T06:59:38;7.53;;;5.63;;
8319;SDS011;4197;42.130;24.746;2023-05-19T07:02:08;7.30;;;5.60;;
8319;SDS011;4197;42.130;24.746;2023-05-19T07:04:37;10.48;;;5.97;;
8319;SDS011;4197;42.130;24.746;2023-05-19T07:07:08;10.15;;;5.80;;
8319;SDS011;4197;42.130;24.746;2023-05-19T07:09:36;11.70;;;5.65;;
8319;SDS011;4197;42.130;24.746;2023-05-19T07:12:04;11.73;;;5.95;;
8319;SDS011;4197;42.130;24.746;2023-05-19T07:14:33;10.23;;;6.50;;
8319;SDS011;4197;42.130;24.746;2023-05-19T07:17:02;12.80;;;6.88;;
8319;SDS011;4197;42.130;24.746;2023-05-19T07:19:30;6.82;;;5.70;;
8319;SDS011;4197;42.130;24.746;2023-05-19T07:21:58;14.00;;;6.45;;
8319;SDS011;4197;42.130;24.746;2023-05-19T07:24:28;9.65;;;6.68;;
8319;SDS011;4197;42.130;24.746;2023-05-19T07:26:56;11.15;;;5.68;;
8319;SDS011;4197;42.130;24.746;2023-05-19T07:29:25;15.50;;;7.35;;
8319;SDS011;4197;42.130;24.746;2023-05-19T07:31:54;11.38;;;7.10;;
8319;SDS011;4197;42.130;24.746;2023-05-19T07:34:23;9.93;;;6.80;;
8319;SDS011;4197;42.130;24.746;2023-05-19T07:36:52;7.47;;;5.75;;
8319;SDS011;4197;42.130;24.746;2023-05-19T07:39:20;9.48;;;6.88;;
8319;SDS011;4197;42.130;24.746;2023-05-19T07:41:53;11.32;;;6.43;;
8319;SDS011;4197;42.130;24.746;2023-05-19T07:44:22;9.32;;;6.63;;
8319;SDS011;4197;42.130;24.746;2023-05-19T07:46:52;9.15;;;6.75;;
8319;SDS011;4197;42.130;24.746;2023-05-19T07:49:22;9.15;;;6.78;;
8319;SDS011;4197;42.130;24.746;2023-05-19T07:51:50;9.43;;;6.45;;
8319;SDS011;4197;42.130;24.746;2023-05-19T07:54:19;11.65;;;7.57;;
8319;SDS011;4197;42.130;24.746;2023-05-19T07:56:47;11.40;;;7.07;;
8319;SDS011;4197;42.130;24.746;2023-05-19T07:59:17;11.57;;;6.85;;
8319;SDS011;4197;42.130;24.746;2023-05-19T08:01:45;12.70;;;7.35;;
8319;SDS011;4197;42.130;24.746;2023-05-19T08:04:14;10.40;;;6.28;;
8319;SDS011;4197;42.130;24.746;2023-05-19T08:06:42;10.55;;;6.80;;
8319;SDS011;4197;42.130;24.746;2023-05-19T08:09:11;10.00;;;7.57;;
8319;SDS011;4197;42.130;24.746;2023-05-19T08:11:40;9.82;;;7.05;;
8319;SDS011;4197;42.130;24.746;2023-05-19T08:14:08;9.05;;;6.50;;
8319;SDS011;4197;42.130;24.746;2023-05-19T08:16:38;9.65;;;7.07;;
8319;SDS011;4197;42.130;24.746;2023-05-19T08:19:08;8.07;;;6.93;;
8319;SDS011;4197;42.130;24.746;2023-05-19T08:21:36;10.35;;;7.78;;
8319;SDS011;4197;42.130;24.746;2023-05-19T08:24:05;10.25;;;7.18;;
8319;SDS011;4197;42.130;24.746;2023-05-19T08:26:33;11.20;;;7.05;;
8319;SDS011;4197;42.130;24.746;2023-05-19T08:29:03;10.68;;;7.07;;
8319;SDS011;4197;42.130;24.746;2023-05-19T08:31:32;9.77;;;6.70;;
8319;SDS011;4197;42.130;24.746;2023-05-19T08:34:01;12.05;;;6.32;;
8319;SDS011;4197;42.130;24.746;2023-05-19T08:36:30;13.52;;;7.25;;
8319;SDS011;4197;42.130;24.746;2023-05-19T08:38:59;8.82;;;7.10;;
8319;SDS011;4197;42.130;24.746;2023-05-19T08:41:27;9.85;;;7.22;;
8319;SDS011;4197;42.130;24.746;2023-05-19T08:43:56;8.70;;;6.55;;
8319;SDS011;4197;42.130;24.746;2023-05-19T08:46:24;12.88;;;7.15;;
8319;SDS011;4197;42.130;24.746;2023-05-19T08:48:53;9.23;;;7.15;;
8319;SDS011;4197;42.130;24.746;2023-05-19T08:51:29;10.82;;;6.72;;
8319;SDS011;4197;42.130;24.746;2023-05-19T08:54:06;10.55;;;7.18;;
8319;SDS011;4197;42.130;24.746;2023-05-19T08:56:41;13.70;;;7.55;;
8319;SDS011;4197;42.130;24.746;2023-05-19T08:59:10;10.43;;;7.20;;
8319;SDS011;4197;42.130;24.746;2023-05-19T09:01:40;11.15;;;7.50;;
8319;SDS011;4197;42.130;24.746;2023-05-19T09:04:11;13.93;;;7.22;;
8319;SDS011;4197;42.130;24.746;2023-05-19T09:06:41;13.05;;;7.93;;
8319;SDS011;4197;42.130;24.746;2023-05-19T09:09:10;11.93;;;7.75;;
8319;SDS011;4197;42.130;24.746;2023-05-19T09:11:39;15.60;;;7.80;;
8319;SDS011;4197;42.130;24.746;2023-05-19T09:14:07;11.07;;;7.95;;
8319;SDS011;4197;42.130;24.746;2023-05-19T09:16:35;10.95;;;7.60;;
8319;SDS011;4197;42.130;24.746;2023-05-19T09:19:04;13.13;;;8.98;;
8319;SDS011;4197;42.130;24.746;2023-05-19T09:21:34;11.93;;;8.20;;
8319;SDS011;4197;42.130;24.746;2023-05-19T09:24:05;10.40;;;7.85;;
8319;SDS011;4197;42.130;24.746;2023-05-19T09:26:34;17.08;;;9.27;;
8319;SDS011;4197;42.130;24.746;2023-05-19T09:29:12;11.77;;;9.00;;
8319;SDS011;4197;42.130;24.746;2023-05-19T09:31:46;12.50;;;8.38;;
8319;SDS011;4197;42.130;24.746;2023-05-19T09:34:16;10.63;;;8.23;;
8319;SDS011;4197;42.130;24.746;2023-05-19T09:36:45;10.85;;;8.60;;
8319;SDS011;4197;42.130;24.746;2023-05-19T09:39:16;10.43;;;8.38;;
8319;SDS011;4197;42.130;24.746;2023-05-19T09:41:45;11.60;;;8.98;;
8319;SDS011;4197;42.130;24.746;2023-05-19T09:44:20;11.57;;;9.02;;
8319;SDS011;4197;42.130;24.746;2023-05-19T09:46:49;18.27;;;9.93;;
8319;SDS011;4197;42.130;24.746;2023-05-19T09:49:19;16.52;;;9.00;;
8319;SDS011;4197;42.130;24.746;2023-05-19T09:51:48;10.88;;;8.50;;
8319;SDS011;4197;42.130;24.746;2023-05-19T09:54:20;10.35;;;8.07;;
8319;SDS011;4197;42.130;24.746;2023-05-19T09:56:50;16.25;;;8.98;;
8319;SDS011;4197;42.130;24.746;2023-05-19T09:59:23;12.98;;;9.38;;
8319;SDS011;4197;42.130;24.746;2023-05-19T10:01:52;14.93;;;9.40;;
8319;SDS011;4197;42.130;24.746;2023-05-19T10:04:22;13.40;;;9.05;;
8319;SDS011;4197;42.130;24.746;2023-05-19T10:06:52;13.48;;;9.35;;
8319;SDS011;4197;42.130;24.746;2023-05-19T10:09:23;14.13;;;8.52;;
8319;SDS011;4197;42.130;24.746;2023-05-19T10:11:53;12.60;;;9.40;;
8319;SDS011;4197;42.130;24.746;2023-05-19T10:14:22;13.75;;;9.07;;
8319;SDS011;4197;42.130;24.746;2023-05-19T10:16:51;11.73;;;9.00;;
8319;SDS011;4197;42.130;24.746;2023-05-19T10:19:21;13.18;;;9.73;;
8319;SDS011;4197;42.130;24.746;2023-05-19T10:21:50;10.70;;;8.77;;
8319;SDS011;4197;42.130;24.746;2023-05-19T10:24:20;12.05;;;9.13;;
8319;SDS011;4197;42.130;24.746;2023-05-19T10:26:50;12.40;;;8.82;;
8319;SDS011;4197;42.130;24.746;2023-05-19T10:29:22;12.95;;;9.60;;
8319;SDS011;4197;42.130;24.746;2023-05-19T10:31:54;14.40;;;10.50;;
8319;SDS011;4197;42.130;24.746;2023-05-19T10:34:35;12.93;;;9.15;;
8319;SDS011;4197;42.130;24.746;2023-05-19T10:37:23;14.60;;;9.52;;
8319;SDS011;4197;42.130;24.746;2023-05-19T10:40:03;15.32;;;9.10;;
8319;SDS011;4197;42.130;24.746;2023-05-19T10:42:39;11.38;;;8.98;;
8319;SDS011;4197;42.130;24.746;2023-05-19T10:45:15;11.73;;;9.65;;
8319;SDS011;4197;42.130;24.746;2023-05-19T10:47:46;11.43;;;9.85;;
8319;SDS011;4197;42.130;24.746;2023-05-19T10:50:17;11.93;;;9.50;;
8319;SDS011;4197;42.130;24.746;2023-05-19T10:52:51;12.38;;;9.18;;
8319;SDS011;4197;42.130;24.746;2023-05-19T10:58:15;16.50;;;9.30;;
8319;SDS011;4197;42.130;24.746;2023-05-19T11:01:05;11.55;;;9.30;;
8319;SDS011;4197;42.130;24.746;2023-05-19T11:03:44;13.68;;;9.30;;
8319;SDS011;4197;42.130;24.746;2023-05-19T11:06:21;13.43;;;9.13;;
8319;SDS011;4197;42.130;24.746;2023-05-19T11:08:57;13.38;;;9.43;;
8319;SDS011;4197;42.130;24.746;2023-05-19T11:11:41;17.40;;;9.70;;
8319;SDS011;4197;42.130;24.746;2023-05-19T11:14:13;18.52;;;10.50;;
8319;SDS011;4197;42.130;24.746;2023-05-19T11:16:45;16.48;;;7.70;;
8319;SDS011;4197;42.130;24.746;2023-05-19T11:19:18;24.00;;;8.00;;
8319;SDS011;4197;42.130;24.746;2023-05-19T11:21:55;13.80;;;7.75;;
8319;SDS011;4197;42.130;24.746;2023-05-19T11:24:34;15.18;;;7.47;;
8319;SDS011;4197;42.130;24.746;2023-05-19T11:27:16;10.73;;;7.55;;
8319;SDS011;4197;42.130;24.746;2023-05-19T11:29:48;13.90;;;7.93;;
8319;SDS011;4197;42.130;24.746;2023-05-19T11:32:17;9.50;;;6.95;;
8319;SDS011;4197;42.130;24.746;2023-05-19T11:34:48;10.82;;;6.45;;
8319;SDS011;4197;42.130;24.746;2023-05-19T11:37:16;15.75;;;7.40;;
8319;SDS011;4197;42.130;24.746;2023-05-19T11:39:45;14.65;;;6.68;;
8319;SDS011;4197;42.130;24.746;2023-05-19T11:42:13;12.60;;;7.57;;
8319;SDS011;4197;42.130;24.746;2023-05-19T11:44:43;14.35;;;7.00;;
8319;SDS011;4197;42.130;24.746;2023-05-19T11:47:14;8.70;;;6.90;;
8319;SDS011;4197;42.130;24.746;2023-05-19T11:49:46;19.20;;;7.63;;
8319;SDS011;4197;42.130;24.746;2023-05-19T11:52:21;14.35;;;7.40;;
8319;SDS011;4197;42.130;24.746;2023-05-19T11:54:50;16.20;;;7.10;;
8319;SDS011;4197;42.130;24.746;2023-05-19T11:57:19;15.55;;;8.30;;
8319;SDS011;4197;42.130;24.746;2023-05-19T11:59:50;13.15;;;8.35;;
8319;SDS011;4197;42.130;24.746;2023-05-19T12:02:23;14.05;;;7.72;;
8319;SDS011;4197;42.130;24.746;2023-05-19T12:04:53;11.88;;;7.47;;
8319;SDS011;4197;42.130;24.746;2023-05-19T12:07:22;12.13;;;7.47;;
8319;SDS011;4197;42.130;24.746;2023-05-19T12:09:51;11.00;;;8.07;;
8319;SDS011;4197;42.130;24.746;2023-05-19T12:12:22;11.13;;;7.70;;
8319;SDS011;4197;42.130;24.746;2023-05-19T12:14:50;14.27;;;8.40;;
8319;SDS011;4197;42.130;24.746;2023-05-19T12:17:19;11.57;;;8.18;;
8319;SDS011;4197;42.130;24.746;2023-05-19T12:19:51;12.15;;;8.13;;
8319;SDS011;4197;42.130;24.746;2023-05-19T12:22:20;10.00;;;8.10;;
8319;SDS011;4197;42.130;24.746;2023-05-19T12:24:49;9.65;;;7.38;;
8319;SDS011;4197;42.130;24.746;2023-05-19T12:27:18;10.48;;;7.30;;
8319;SDS011;4197;42.130;24.746;2023-05-19T12:29:49;12.20;;;8.05;;
8319;SDS011;4197;42.130;24.746;2023-05-19T12:32:21;10.75;;;8.48;;
8319;SDS011;4197;42.130;24.746;2023-05-19T12:34:52;10.43;;;7.45;;
8319;SDS011;4197;42.130;24.746;2023-05-19T12:37:24;12.02;;;8.00;;
8319;SDS011;4197;42.130;24.746;2023-05-19T12:39:55;9.85;;;7.95;;
8319;SDS011;4197;42.130;24.746;2023-05-19T12:42:25;13.45;;;7.93;;
8319;SDS011;4197;42.130;24.746;2023-05-19T12:44:57;16.05;;;8.38;;
8319;SDS011;4197;42.130;24.746;2023-05-19T12:47:28;11.65;;;7.90;;
8319;SDS011;4197;42.130;24.746;2023-05-19T12:50:04;13.02;;;7.68;;
8319;SDS011;4197;42.130;24.746;2023-05-19T12:52:40;8.93;;;7.32;;
8319;SDS011;4197;42.130;24.746;2023-05-19T12:55:10;9.55;;;7.78;;
8319;SDS011;4197;42.130;24.746;2023-05-19T12:57:41;11.70;;;8.27;;
8319;SDS011;4197;42.130;24.746;2023-05-19T13:00:14;9.55;;;7.32;;
8319;SDS011;4197;42.130;24.746;2023-05-19T13:02:56;11.45;;;8.60;;
8319;SDS011;4197;42.130;24.746;2023-05-19T13:05:29;10.45;;;8.07;;
8319;SDS011;4197;42.130;24.746;2023-05-19T13:07:59;12.65;;;7.57;;
8319;SDS011;4197;42.130;24.746;2023-05-19T13:10:29;10.65;;;7.55;;
8319;SDS011;4197;42.130;24.746;2023-05-19T13:12:59;10.35;;;7.28;;
8319;SDS011;4197;42.130;24.746;2023-05-19T13:15:27;9.43;;;7.32;;
8319;SDS011;4197;42.130;24.746;2023-05-19T13:18:00;13.70;;;8.18;;
8319;SDS011;4197;42.130;24.746;2023-05-19T13:20:30;12.88;;;9.15;;
8319;SDS011;4197;42.130;24.746;2023-05-19T13:22:59;11.95;;;8.27;;
8319;SDS011;4197;42.130;24.746;2023-05-19T13:25:29;12.57;;;7.88;;
8319;SDS011;4197;42.130;24.746;2023-05-19T13:28:00;12.32;;;8.35;;
8319;SDS011;4197;42.130;24.746;2023-05-19T13:30:31;12.45;;;9.15;;
8319;SDS011;4197;42.130;24.746;2023-05-19T13:33:00;8.75;;;7.45;;
8319;SDS011;4197;42.130;24.746;2023-05-19T13:35:30;11.55;;;7.65;;
8319;SDS011;4197;42.130;24.746;2023-05-19T13:38:03;13.68;;;8.38;;
8319;SDS011;4197;42.130;24.746;2023-05-19T13:40:32;13.48;;;8.35;;
8319;SDS011;4197;42.130;24.746;2023-05-19T13:43:02;11.27;;;9.68;;
8319;SDS011;4197;42.130;24.746;2023-05-19T13:45:31;9.35;;;7.60;;
8319;SDS011;4197;42.130;24.746;2023-05-19T13:48:00;16.35;;;9.43;;
8319;SDS011;4197;42.130;24.746;2023-05-19T13:50:28;12.05;;;8.48;;
8319;SDS011;4197;42.130;24.746;2023-05-19T13:52:59;17.42;;;11.45;;
8319;SDS011;4197;42.130;24.746;2023-05-19T13:55:29;15.02;;;9.20;;
8319;SDS011;4197;42.130;24.746;2023-05-19T13:57:57;9.93;;;7.65;;
8319;SDS011;4197;42.130;24.746;2023-05-19T14:00:25;14.95;;;8.05;;
8319;SDS011;4197;42.130;24.746;2023-05-19T14:02:53;10.65;;;8.90;;
8319;SDS011;4197;42.130;24.746;2023-05-19T14:05:22;10.43;;;8.30;;
8319;SDS011;4197;42.130;24.746;2023-05-19T14:07:52;12.00;;;8.55;;
8319;SDS011;4197;42.130;24.746;2023-05-19T14:10:20;12.00;;;8.50;;
8319;SDS011;4197;42.130;24.746;2023-05-19T14:12:49;10.60;;;7.30;;
8319;SDS011;4197;42.130;24.746;2023-05-19T14:15:23;13.38;;;8.13;;
8319;SDS011;4197;42.130;24.746;2023-05-19T14:17:52;18.60;;;9.23;;
8319;SDS011;4197;42.130;24.746;2023-05-19T14:20:20;15.65;;;8.55;;
8319;SDS011;4197;42.130;24.746;2023-05-19T14:22:48;30.13;;;8.13;;
8319;SDS011;4197;42.130;24.746;2023-05-19T14:25:18;16.65;;;7.07;;
8319;SDS011;4197;42.130;24.746;2023-05-19T14:27:46;9.95;;;5.95;;
8319;SDS011;4197;42.130;24.746;2023-05-19T14:30:14;17.00;;;6.30;;
8319;SDS011;4197;42.130;24.746;2023-05-19T14:32:43;12.45;;;6.10;;
8319;SDS011;4197;42.130;24.746;2023-05-19T14:35:11;10.45;;;5.85;;
8319;SDS011;4197;42.130;24.746;2023-05-19T14:37:39;9.07;;;6.18;;
8319;SDS011;4197;42.130;24.746;2023-05-19T14:40:08;12.25;;;6.68;;
8319;SDS011;4197;42.130;24.746;2023-05-19T14:42:38;11.95;;;6.32;;
8319;SDS011;4197;42.130;24.746;2023-05-19T14:45:07;9.20;;;6.63;;
8319;SDS011;4197;42.130;24.746;2023-05-19T14:47:36;13.27;;;7.90;;
8319;SDS011;4197;42.130;24.746;2023-05-19T14:50:04;12.95;;;7.13;;
8319;SDS011;4197;42.130;24.746;2023-05-19T14:52:33;11.90;;;7.53;;
8319;SDS011;4197;42.130;24.746;2023-05-19T14:55:02;13.98;;;7.10;;
8319;SDS011;4197;42.130;24.746;2023-05-19T14:57:30;11.60;;;7.53;;
8319;SDS011;4197;42.130;24.746;2023-05-19T15:00:00;14.85;;;7.38;;
8319;SDS011;4197;42.130;24.746;2023-05-19T15:02:28;17.42;;;7.82;;
8319;SDS011;4197;42.130;24.746;2023-05-19T15:04:56;13.05;;;7.55;;
8319;SDS011;4197;42.130;24.746;2023-05-19T15:07:26;14.63;;;8.98;;
8319;SDS011;4197;42.130;24.746;2023-05-19T15:09:54;12.57;;;8.10;;
8319;SDS011;4197;42.130;24.746;2023-05-19T15:12:23;11.57;;;8.30;;
8319;SDS011;4197;42.130;24.746;2023-05-19T15:14:52;11.93;;;8.45;;
8319;SDS011;4197;42.130;24.746;2023-05-19T15:17:21;19.38;;;7.53;;
8319;SDS011;4197;42.130;24.746;2023-05-19T15:19:50;11.45;;;7.32;;
8319;SDS011;4197;42.130;24.746;2023-05-19T15:22:19;28.00;;;9.45;;